createdAt,value
2019-02-18T00:01:56.179Z,9.80
2019-02-18T00:04:24.069Z,9.80
2019-02-18T00:06:51.892Z,9.80
2019-02-18T00:09:20.358Z,9.80
2019-02-18T00:11:48.272Z,9.80
2019-02-18T00:14:16.173Z,9.80
2019-02-18T00:16:44.999Z,9.80
2019-02-18T00:19:12.836Z,9.80
2019-02-18T00:21:40.774Z,9.80
2019-02-18T00:24:08.626Z,9.80
2019-02-18T00:26:36.461Z,9.80
2019-02-18T00:29:04.318Z,9.70
2019-02-18T00:31:32.149Z,9.70
2019-02-18T00:34:00.098Z,9.70
2019-02-18T00:36:27.970Z,9.70
2019-02-18T00:38:55.825Z,9.70
2019-02-18T00:41:23.633Z,9.80
2019-02-18T00:43:51.505Z,9.80
2019-02-18T00:46:19.370Z,9.80
2019-02-18T00:48:47.181Z,9.80
2019-02-18T00:51:15.086Z,9.80
2019-02-18T00:53:42.921Z,9.80
2019-02-18T00:56:10.743Z,9.80
2019-02-18T00:58:38.584Z,9.80
2019-02-18T01:01:06.424Z,9.80
2019-02-18T01:03:34.658Z,9.80
2019-02-18T01:06:02.529Z,9.70
2019-02-18T01:08:30.360Z,9.70
2019-02-18T01:10:58.197Z,9.70
2019-02-18T01:13:26.069Z,9.70
2019-02-18T01:15:54.074Z,9.70
2019-02-18T01:18:22.088Z,9.70
2019-02-18T01:20:49.976Z,9.70
2019-02-18T01:23:18.114Z,9.80
2019-02-18T01:25:45.983Z,9.80
2019-02-18T01:28:13.909Z,9.80
2019-02-18T01:30:41.740Z,9.80
2019-02-18T01:33:09.616Z,9.80
2019-02-18T01:35:37.611Z,9.80
2019-02-18T01:38:08.458Z,9.80
2019-02-18T01:40:36.286Z,9.80
2019-02-18T01:43:04.320Z,9.90
2019-02-18T01:45:32.367Z,9.90
2019-02-18T01:48:00.423Z,9.90
2019-02-18T01:50:28.251Z,9.90
2019-02-18T01:52:56.267Z,9.90
2019-02-18T01:55:24.085Z,9.90
2019-02-18T01:57:51.927Z,10.00
2019-02-18T02:00:19.819Z,10.00
2019-02-18T02:02:47.899Z,10.00
2019-02-18T02:05:16.478Z,10.00
2019-02-18T02:07:44.355Z,10.00
2019-02-18T02:10:12.188Z,10.00
2019-02-18T02:12:40.078Z,10.00
2019-02-18T02:15:07.966Z,10.00
2019-02-18T02:17:35.814Z,10.00
2019-02-18T02:20:03.663Z,9.90
2019-02-18T02:22:31.729Z,9.90
2019-02-18T02:24:59.750Z,9.90
2019-02-18T02:27:27.595Z,9.90
2019-02-18T02:29:55.476Z,9.80
2019-02-18T02:32:23.314Z,9.80
2019-02-18T02:34:51.154Z,9.80
2019-02-18T02:37:19.008Z,9.70
2019-02-18T02:39:47.059Z,9.70
2019-02-18T02:42:15.250Z,9.70
2019-02-18T02:44:43.265Z,9.70
2019-02-18T02:47:11.100Z,9.70
2019-02-18T02:49:39.095Z,9.60
2019-02-18T02:52:06.997Z,9.60
2019-02-18T02:54:34.976Z,9.60
2019-02-18T02:57:05.579Z,9.60
2019-02-18T02:59:33.442Z,9.60
2019-02-18T03:02:01.272Z,9.60
2019-02-18T03:04:29.155Z,9.60
2019-02-18T03:06:57.021Z,9.60
2019-02-18T03:09:24.872Z,9.60
2019-02-18T03:11:52.705Z,9.70
2019-02-18T03:14:20.566Z,9.70
2019-02-18T03:16:48.400Z,9.70
2019-02-18T03:19:16.256Z,9.70
2019-02-18T03:21:44.085Z,9.70
2019-02-18T03:24:11.934Z,9.80
2019-02-18T03:26:40.010Z,9.70
2019-02-18T03:29:08.281Z,9.80
2019-02-18T03:31:36.110Z,9.80
2019-02-18T03:34:04.959Z,9.80
2019-02-18T03:36:32.833Z,9.80
2019-02-18T03:39:00.625Z,9.90
2019-02-18T03:41:28.480Z,9.90
2019-02-18T03:43:56.334Z,9.90
2019-02-18T03:46:24.172Z,9.90
2019-02-18T03:48:52.053Z,9.90
2019-02-18T03:51:19.984Z,9.90
2019-02-18T03:53:48.302Z,9.80
2019-02-18T03:56:16.157Z,9.80
2019-02-18T03:58:43.972Z,9.70
2019-02-18T04:01:11.812Z,9.70
2019-02-18T04:03:39.769Z,9.60
2019-02-18T04:06:07.824Z,9.60
2019-02-18T04:08:43.073Z,9.50
2019-02-18T04:11:05.145Z,9.50
2019-02-18T04:13:32.958Z,9.50
2019-02-18T04:16:00.788Z,9.50
2019-02-18T04:18:28.623Z,9.50
2019-02-18T04:20:56.487Z,9.50
2019-02-18T04:23:24.318Z,9.50
2019-02-18T04:25:52.172Z,9.50
2019-02-18T04:28:21.984Z,9.50
2019-02-18T04:30:49.801Z,9.50
2019-02-18T04:33:17.634Z,9.50
2019-02-18T04:35:45.479Z,9.50
2019-02-18T04:38:13.704Z,9.50
2019-02-18T04:40:41.622Z,9.50
2019-02-18T04:43:09.452Z,9.50
2019-02-18T04:45:37.284Z,9.60
2019-02-18T04:48:07.610Z,9.60
2019-02-18T04:50:35.592Z,9.60
2019-02-18T04:53:03.424Z,9.60
2019-02-18T04:55:31.241Z,9.60
2019-02-18T04:57:59.113Z,9.70
2019-02-18T05:00:26.951Z,9.60
2019-02-18T05:02:54.781Z,9.70
2019-02-18T05:05:22.655Z,9.70
2019-02-18T05:07:50.673Z,9.70
2019-02-18T05:10:18.518Z,9.70
2019-02-18T05:12:46.341Z,9.70
2019-02-18T05:15:15.197Z,9.70
2019-02-18T05:17:43.085Z,9.70
2019-02-18T05:20:11.049Z,9.70
2019-02-18T05:22:38.894Z,9.70
2019-02-18T05:25:06.749Z,9.70
2019-02-18T05:27:34.814Z,9.60
2019-02-18T05:30:02.766Z,9.60
2019-02-18T05:32:30.633Z,9.60
2019-02-18T05:34:58.944Z,9.60
2019-02-18T05:37:26.840Z,9.60
2019-02-18T05:39:55.475Z,9.60
2019-02-18T05:42:23.527Z,9.60
2019-02-18T05:44:51.406Z,9.50
2019-02-18T05:47:19.322Z,9.40
2019-02-18T05:49:47.455Z,9.40
2019-02-18T05:52:15.334Z,9.40
2019-02-18T05:54:43.173Z,9.40
2019-02-18T05:57:11.017Z,9.40
2019-02-18T05:59:38.900Z,9.40
2019-02-18T06:02:07.010Z,9.30
2019-02-18T06:04:34.831Z,9.30
2019-02-18T06:07:02.693Z,9.30
2019-02-18T06:09:30.574Z,9.20
2019-02-18T06:11:58.796Z,9.20
2019-02-18T06:14:26.665Z,9.20
2019-02-18T06:16:54.526Z,9.20
2019-02-18T06:19:22.349Z,9.20
2019-02-18T06:21:50.191Z,9.10
2019-02-18T06:24:18.056Z,9.10
2019-02-18T06:26:46.001Z,9.10
2019-02-18T06:29:13.873Z,9.10
2019-02-18T06:31:41.683Z,9.10
2019-02-18T06:34:09.735Z,9.10
2019-02-18T06:36:37.597Z,9.10
2019-02-18T06:39:06.773Z,9.10
2019-02-18T06:41:34.595Z,9.10
2019-02-18T06:44:02.513Z,9.20
2019-02-18T06:46:33.304Z,9.10
2019-02-18T06:49:08.963Z,9.10
2019-02-18T06:51:37.265Z,9.10
2019-02-18T06:54:05.089Z,9.10
2019-02-18T06:56:50.315Z,9.10
2019-02-18T06:59:24.234Z,9.10
2019-02-18T07:02:10.977Z,9.00
2019-02-18T07:05:04.293Z,9.00
2019-02-18T07:08:05.946Z,9.00
2019-02-18T07:11:01.762Z,9.00
2019-02-18T07:13:29.565Z,9.00
2019-02-18T07:15:57.426Z,9.00
2019-02-18T07:18:25.315Z,9.10
2019-02-18T07:20:53.293Z,9.20
2019-02-18T07:23:21.166Z,9.30
2019-02-18T07:25:49.417Z,9.50
2019-02-18T07:28:17.400Z,9.60
2019-02-18T07:30:45.264Z,9.80
2019-02-18T07:33:13.135Z,10.00
2019-02-18T07:35:41.059Z,10.10
2019-02-18T07:38:08.909Z,10.40
2019-02-18T07:40:36.777Z,10.60
2019-02-18T07:43:04.626Z,10.90
2019-02-18T07:45:32.460Z,11.20
2019-02-18T07:48:00.332Z,11.50
2019-02-18T07:50:28.176Z,12.00
2019-02-18T07:52:56.104Z,12.70
2019-02-18T07:55:23.930Z,13.40
2019-02-18T07:57:51.763Z,14.40
2019-02-18T08:00:19.937Z,15.20
2019-02-18T08:02:47.809Z,16.00
2019-02-18T08:05:15.790Z,16.60
2019-02-18T08:07:43.656Z,17.20
2019-02-18T08:10:12.477Z,17.70
2019-02-18T08:12:40.496Z,18.20
2019-02-18T08:15:08.375Z,18.70
2019-02-18T08:17:36.212Z,19.00
2019-02-18T08:20:04.096Z,19.40
2019-02-18T08:22:31.914Z,19.80
2019-02-18T08:24:59.749Z,20.10
2019-02-18T08:27:28.046Z,20.40
2019-02-18T08:29:56.153Z,20.70
2019-02-18T08:32:24.148Z,21.10
2019-02-18T08:34:52.537Z,21.40
2019-02-18T08:37:20.361Z,21.50
2019-02-18T08:39:48.181Z,21.60
2019-02-18T08:42:16.033Z,21.80
2019-02-18T08:44:43.869Z,22.30
2019-02-18T08:47:11.714Z,22.60
2019-02-18T08:49:39.695Z,22.80
2019-02-18T08:52:07.541Z,23.30
2019-02-18T08:54:35.412Z,23.80
2019-02-18T08:57:03.470Z,24.10
2019-02-18T08:59:31.306Z,24.40
2019-02-18T09:01:59.122Z,24.60
2019-02-18T09:04:28.129Z,25.00
2019-02-18T09:06:56.239Z,25.50
2019-02-18T09:09:24.095Z,25.60
2019-02-18T09:11:51.953Z,26.10
2019-02-18T09:14:19.806Z,26.40
2019-02-18T09:16:47.640Z,26.50
2019-02-18T09:19:15.811Z,26.70
2019-02-18T09:21:43.695Z,26.90
2019-02-18T09:24:19.241Z,26.80
2019-02-18T09:26:47.118Z,27.10
2019-02-18T09:29:14.954Z,27.50
2019-02-18T09:31:43.059Z,27.80
2019-02-18T09:34:11.021Z,28.00
2019-02-18T09:36:39.027Z,28.40
2019-02-18T09:39:06.878Z,28.30
2019-02-18T09:41:34.749Z,28.60
2019-02-18T09:44:02.805Z,28.30
2019-02-18T09:46:31.019Z,28.30
2019-02-18T09:48:58.982Z,28.70
2019-02-18T09:51:26.838Z,28.90
2019-02-18T09:53:54.665Z,29.20
2019-02-18T09:56:22.557Z,29.70
2019-02-18T09:58:50.985Z,29.90
2019-02-18T10:01:18.828Z,30.10
2019-02-18T10:03:46.676Z,30.10
2019-02-18T10:06:14.526Z,30.20
2019-02-18T10:08:42.386Z,30.30
2019-02-18T10:11:10.257Z,30.40
2019-02-18T10:13:38.262Z,30.20
2019-02-18T10:16:06.088Z,30.30
2019-02-18T10:18:34.036Z,30.20
2019-02-18T10:21:01.911Z,30.30
2019-02-18T10:23:29.928Z,30.50
2019-02-18T10:25:57.879Z,30.40
2019-02-18T10:28:25.719Z,30.30
2019-02-18T10:30:53.587Z,30.50
2019-02-18T10:33:21.447Z,30.80
2019-02-18T10:35:49.281Z,30.60
2019-02-18T10:38:17.126Z,30.90
2019-02-18T10:40:44.967Z,30.40
2019-02-18T10:43:16.092Z,30.20
2019-02-18T10:45:44.435Z,30.10
2019-02-18T10:48:12.329Z,29.60
2019-02-18T10:50:40.580Z,29.00
2019-02-18T10:53:08.420Z,28.40
2019-02-18T10:55:36.371Z,27.70
2019-02-18T10:58:04.167Z,27.10
2019-02-18T11:00:32.007Z,26.60
2019-02-18T11:02:59.921Z,25.70
2019-02-18T11:05:27.761Z,25.10
2019-02-18T11:07:56.293Z,24.80
2019-02-18T11:10:24.412Z,24.40
2019-02-18T11:12:52.241Z,23.90
2019-02-18T11:15:20.179Z,23.60
2019-02-18T11:17:48.021Z,23.30
2019-02-18T11:20:15.866Z,22.90
2019-02-18T11:22:43.756Z,22.60
2019-02-18T11:25:11.752Z,22.20
2019-02-18T11:27:39.646Z,21.80
2019-02-18T11:30:07.491Z,21.50
2019-02-18T11:32:35.750Z,21.40
2019-02-18T11:35:03.593Z,21.20
2019-02-18T11:37:31.485Z,21.00
2019-02-18T11:39:59.371Z,20.90
2019-02-18T11:42:27.243Z,20.70
2019-02-18T11:44:55.124Z,20.50
2019-02-18T11:47:23.377Z,20.40
2019-02-18T11:49:51.279Z,20.40
2019-02-18T11:52:19.113Z,20.20
2019-02-18T11:54:47.011Z,20.10
2019-02-18T11:57:14.885Z,20.10
2019-02-18T11:59:42.892Z,20.20
2019-02-18T12:02:10.729Z,20.30
2019-02-18T12:04:38.925Z,20.40
2019-02-18T12:07:06.789Z,20.50
2019-02-18T12:09:34.641Z,20.70
2019-02-18T12:12:02.712Z,20.60
2019-02-18T12:14:30.744Z,20.50
2019-02-18T12:16:58.629Z,20.40
2019-02-18T12:19:26.560Z,20.10
2019-02-18T12:21:54.999Z,19.70
2019-02-18T12:24:22.882Z,19.40
2019-02-18T12:26:50.819Z,19.40
2019-02-18T12:29:26.253Z,19.50
2019-02-18T12:31:49.057Z,19.60
2019-02-18T12:34:17.185Z,19.70
2019-02-18T12:36:45.715Z,19.90
2019-02-18T12:39:15.593Z,20.10
2019-02-18T12:41:48.673Z,20.00
2019-02-18T12:44:13.365Z,20.20
2019-02-18T12:46:41.273Z,20.20
2019-02-18T12:49:09.204Z,20.30
2019-02-18T12:51:37.032Z,20.20
2019-02-18T12:54:05.546Z,20.00
2019-02-18T12:56:34.337Z,20.00
2019-02-18T12:59:02.178Z,19.90
2019-02-18T13:01:30.035Z,19.70
2019-02-18T13:03:57.940Z,19.80
2019-02-18T13:06:25.759Z,19.90
2019-02-18T13:08:53.723Z,20.10
2019-02-18T13:11:21.635Z,20.30
2019-02-18T13:13:50.095Z,20.50
2019-02-18T13:16:17.940Z,20.50
2019-02-18T13:18:45.805Z,20.20
2019-02-18T13:21:15.914Z,20.10
2019-02-18T13:23:43.800Z,20.30
2019-02-18T13:26:11.732Z,20.60
2019-02-18T13:28:39.568Z,20.90
2019-02-18T13:31:07.449Z,21.20
2019-02-18T13:33:36.082Z,21.40
2019-02-18T13:36:03.958Z,21.70
2019-02-18T13:38:31.888Z,22.00
2019-02-18T13:40:59.753Z,22.00
2019-02-18T13:43:27.591Z,22.00
2019-02-18T13:45:55.526Z,21.80
2019-02-18T13:48:23.420Z,21.60
2019-02-18T13:50:51.355Z,21.50
2019-02-18T13:53:19.189Z,21.50
2019-02-18T13:55:47.080Z,21.50
2019-02-18T13:58:14.909Z,21.50
2019-02-18T14:00:43.210Z,21.60
2019-02-18T14:03:11.352Z,21.70
2019-02-18T14:05:39.193Z,21.90
2019-02-18T14:08:07.064Z,21.90
2019-02-18T14:10:35.512Z,21.60
2019-02-18T14:13:03.626Z,21.70
2019-02-18T14:15:31.638Z,21.80
2019-02-18T14:17:59.865Z,21.90
2019-02-18T14:20:27.718Z,22.00
2019-02-18T14:22:55.976Z,22.20
2019-02-18T14:25:23.942Z,22.20
2019-02-18T14:27:51.804Z,22.10
2019-02-18T14:30:19.701Z,22.10
2019-02-18T14:32:47.577Z,22.10
2019-02-18T14:35:15.409Z,22.00
2019-02-18T14:37:43.225Z,22.10
2019-02-18T14:40:13.050Z,22.20
2019-02-18T14:42:40.938Z,22.20
2019-02-18T14:45:08.785Z,22.30
2019-02-18T14:47:36.918Z,22.40
2019-02-18T14:50:06.184Z,22.50
2019-02-18T14:52:34.410Z,22.60
2019-02-18T14:55:02.790Z,23.00
2019-02-18T14:57:30.629Z,23.50
2019-02-18T14:59:58.472Z,24.00
2019-02-18T15:02:28.226Z,24.90
2019-02-18T15:04:55.834Z,25.70
2019-02-18T15:07:24.051Z,26.60
2019-02-18T15:09:51.944Z,27.40
2019-02-18T15:12:20.178Z,27.90
2019-02-18T15:14:48.012Z,28.50
2019-02-18T15:17:15.889Z,29.00
2019-02-18T15:19:43.973Z,29.50
2019-02-18T15:22:12.475Z,29.90
2019-02-18T15:24:40.694Z,30.30
2019-02-18T15:27:08.575Z,30.70
2019-02-18T15:29:36.961Z,31.00
2019-02-18T15:32:04.939Z,30.80
2019-02-18T15:34:32.803Z,30.80
2019-02-18T15:37:00.896Z,30.70
2019-02-18T15:39:29.269Z,30.70
2019-02-18T15:41:57.247Z,30.70
2019-02-18T15:44:25.495Z,30.50
2019-02-18T15:46:53.396Z,30.50
2019-02-18T15:49:21.348Z,30.60
2019-02-18T15:51:49.305Z,30.30
2019-02-18T15:54:17.422Z,30.00
2019-02-18T15:56:45.395Z,29.70
2019-02-18T15:59:13.233Z,29.10
2019-02-18T16:01:41.409Z,27.70
2019-02-18T16:04:09.257Z,26.10
2019-02-18T16:06:37.105Z,24.70
2019-02-18T16:09:05.331Z,23.30
2019-02-18T16:11:34.352Z,22.10
2019-02-18T16:14:02.234Z,21.10
2019-02-18T16:16:30.254Z,20.20
2019-02-18T16:18:58.078Z,19.50
2019-02-18T16:21:26.061Z,18.80
2019-02-18T16:23:54.299Z,18.30
2019-02-18T16:26:22.127Z,18.00
2019-02-18T16:28:49.982Z,17.70
2019-02-18T16:31:18.071Z,17.40
2019-02-18T16:33:46.255Z,17.20
2019-02-18T16:36:14.089Z,16.90
2019-02-18T16:38:42.321Z,16.70
2019-02-18T16:41:10.166Z,16.50
2019-02-18T16:43:38.005Z,16.40
2019-02-18T16:46:05.886Z,16.20
2019-02-18T16:48:34.132Z,16.00
2019-02-18T16:51:02.031Z,15.90
2019-02-18T16:53:29.914Z,15.80
2019-02-18T16:55:57.748Z,15.70
2019-02-18T16:58:25.835Z,15.60
2019-02-18T17:00:57.750Z,15.50
2019-02-18T17:03:24.846Z,15.40
2019-02-18T17:05:53.087Z,15.30
2019-02-18T17:08:20.992Z,15.20
2019-02-18T17:10:48.829Z,15.20
2019-02-18T17:13:16.674Z,15.10
2019-02-18T17:15:44.763Z,15.00
2019-02-18T17:18:12.800Z,15.00
2019-02-18T17:20:40.639Z,14.90
2019-02-18T17:23:08.821Z,14.90
2019-02-18T17:25:36.676Z,14.80
2019-02-18T17:28:04.504Z,14.80
2019-02-18T17:30:32.768Z,14.70
2019-02-18T17:33:00.756Z,14.60
2019-02-18T17:35:28.565Z,14.60
2019-02-18T17:37:56.605Z,14.50
2019-02-18T17:40:24.844Z,14.50
2019-02-18T17:42:52.689Z,14.40
2019-02-18T17:45:20.556Z,14.40
2019-02-18T17:47:48.405Z,14.40
2019-02-18T17:50:16.297Z,14.40
2019-02-18T17:52:44.267Z,14.30
2019-02-18T17:55:12.297Z,14.30
2019-02-18T17:57:40.534Z,14.30
2019-02-18T18:00:08.524Z,14.30
2019-02-18T18:02:36.369Z,14.20
2019-02-18T18:05:04.198Z,14.20
2019-02-18T18:07:32.067Z,14.10
2019-02-18T18:10:00.273Z,14.10
2019-02-18T18:12:28.177Z,14.10
2019-02-18T18:14:56.370Z,14.00
2019-02-18T18:17:24.265Z,14.10
2019-02-18T18:19:52.660Z,14.00
2019-02-18T18:22:20.781Z,14.00
2019-02-18T18:24:48.866Z,14.00
2019-02-18T18:27:16.886Z,14.00
2019-02-18T18:29:45.203Z,13.90
2019-02-18T18:32:13.515Z,13.90
2019-02-18T18:34:41.564Z,13.80
2019-02-18T18:37:09.478Z,13.80
2019-02-18T18:39:37.339Z,13.90
2019-02-18T18:42:05.178Z,13.80
2019-02-18T18:44:33.106Z,13.70
2019-02-18T18:47:01.273Z,13.70
2019-02-18T18:49:29.114Z,13.70
2019-02-18T18:51:56.986Z,13.60
2019-02-18T18:54:24.817Z,13.70
2019-02-18T18:56:52.691Z,13.70
2019-02-18T18:59:20.585Z,13.70
2019-02-18T19:01:48.445Z,13.60
2019-02-18T19:04:18.260Z,13.60
2019-02-18T19:06:46.497Z,13.50
2019-02-18T19:09:14.334Z,13.60
2019-02-18T19:11:42.198Z,13.60
2019-02-18T19:14:10.068Z,13.50
2019-02-18T19:16:37.904Z,13.50
2019-02-18T19:19:05.956Z,13.50
2019-02-18T19:21:33.886Z,13.50
2019-02-18T19:24:03.490Z,13.50
2019-02-18T19:26:31.245Z,13.40
2019-02-18T19:28:59.195Z,13.40
2019-02-18T19:31:27.027Z,13.40
2019-02-18T19:33:55.481Z,13.30
2019-02-18T19:36:23.351Z,13.20
2019-02-18T19:38:51.577Z,13.20
2019-02-18T19:41:19.433Z,13.20
2019-02-18T19:43:50.384Z,13.20
2019-02-18T19:46:17.478Z,13.10
2019-02-18T19:48:45.773Z,13.10
2019-02-18T19:51:13.666Z,13.00
2019-02-18T19:53:41.517Z,13.00
2019-02-18T19:56:09.349Z,13.00
2019-02-18T19:58:37.245Z,13.00
2019-02-18T20:01:05.234Z,13.00
2019-02-18T20:03:33.063Z,13.00
2019-02-18T20:06:01.230Z,13.00
2019-02-18T20:08:29.166Z,13.00
2019-02-18T20:10:57.003Z,13.00
2019-02-18T20:13:25.047Z,13.20
2019-02-18T20:15:52.903Z,13.20
2019-02-18T20:18:20.801Z,13.20
2019-02-18T20:20:49.040Z,13.20
2019-02-18T20:23:16.880Z,13.20
2019-02-18T20:25:44.695Z,13.20
2019-02-18T20:28:12.578Z,13.30
2019-02-18T20:30:40.422Z,13.20
2019-02-18T20:33:08.345Z,13.20
2019-02-18T20:35:36.488Z,13.10
2019-02-18T20:38:04.645Z,13.10
2019-02-18T20:40:32.578Z,13.00
2019-02-18T20:43:00.408Z,13.10
2019-02-18T20:45:28.768Z,13.10
2019-02-18T20:47:56.622Z,13.00
2019-02-18T20:50:24.489Z,13.00
2019-02-18T20:52:52.360Z,13.00
2019-02-18T20:55:20.628Z,13.10
2019-02-18T20:57:50.747Z,13.10
2019-02-18T21:00:19.419Z,13.10
2019-02-18T21:02:47.296Z,13.10
2019-02-18T21:05:15.213Z,13.10
2019-02-18T21:08:28.682Z,13.00
2019-02-18T21:10:43.952Z,13.00
2019-02-18T21:13:11.969Z,13.10
2019-02-18T21:15:40.840Z,13.20
2019-02-18T21:18:08.965Z,13.20
2019-02-18T21:20:37.107Z,13.20
2019-02-18T21:23:05.148Z,13.20
2019-02-18T21:25:33.257Z,13.20
2019-02-18T21:31:02.875Z,13.10
2019-02-18T21:33:30.935Z,13.10
2019-02-18T21:36:00.265Z,13.10
2019-02-18T21:38:28.457Z,13.10
2019-02-18T21:40:57.175Z,13.10
2019-02-18T21:43:25.558Z,13.00
2019-02-18T21:45:53.848Z,13.00
2019-02-18T21:48:21.826Z,13.00
2019-02-18T21:50:49.985Z,12.90
2019-02-18T21:53:18.216Z,12.90
2019-02-18T21:55:46.395Z,12.90
2019-02-18T21:58:14.770Z,12.90
2019-02-18T22:00:44.134Z,12.80
2019-02-18T22:03:12.255Z,12.80
2019-02-18T22:05:40.217Z,12.80
2019-02-18T22:08:08.349Z,12.80
2019-02-18T22:10:37.165Z,12.80
2019-02-18T22:13:05.111Z,12.80
2019-02-18T22:15:33.357Z,12.80
2019-02-18T22:18:02.825Z,12.70
2019-02-18T22:20:30.859Z,12.70
2019-02-18T22:22:58.992Z,12.70
2019-02-18T22:25:26.964Z,12.60
2019-02-18T22:27:55.122Z,12.60
2019-02-18T22:30:23.128Z,12.70
2019-02-18T22:32:51.199Z,12.70
2019-02-18T22:35:19.127Z,12.70
2019-02-18T22:37:47.293Z,12.70
2019-02-18T22:40:15.296Z,12.70
2019-02-18T22:42:43.201Z,12.70
2019-02-18T22:45:11.134Z,12.70
2019-02-18T22:47:39.096Z,12.80
2019-02-18T22:50:07.048Z,12.80
2019-02-18T22:52:35.599Z,12.80
2019-02-18T22:55:03.559Z,12.80
2019-02-18T22:57:31.523Z,12.70
2019-02-18T22:59:59.728Z,12.70
2019-02-18T23:02:36.822Z,12.70
2019-02-18T23:05:04.966Z,12.80
2019-02-18T23:07:33.333Z,12.70
2019-02-18T23:10:01.533Z,12.70
2019-02-18T23:12:29.739Z,12.60
2019-02-18T23:15:03.900Z,12.60
2019-02-18T23:17:31.843Z,12.50
2019-02-18T23:19:59.964Z,12.40
2019-02-18T23:22:28.278Z,12.30
2019-02-18T23:24:56.303Z,12.30
2019-02-18T23:27:24.232Z,12.30
2019-02-18T23:29:52.163Z,12.20
2019-02-18T23:32:20.177Z,12.10
2019-02-18T23:34:54.216Z,12.10
2019-02-18T23:37:22.140Z,12.10
2019-02-18T23:39:50.153Z,12.10
2019-02-18T23:42:18.183Z,12.00
2019-02-18T23:44:49.214Z,12.00
2019-02-18T23:47:17.161Z,12.00
2019-02-18T23:49:45.090Z,12.00
2019-02-18T23:52:12.988Z,12.10
2019-02-18T23:54:40.896Z,12.10
2019-02-18T23:57:08.917Z,12.10
2019-02-18T23:59:37.354Z,12.10
